createdAt,value
2023-04-18T00:00:56.213Z,0.5431
2023-04-18T00:01:59.316Z,0.5355
2023-04-18T00:03:04.429Z,0.5521
2023-04-18T00:04:05.250Z,0.5584
2023-04-18T00:05:08.043Z,0.5466
2023-04-18T00:06:10.985Z,0.5305
2023-04-18T00:07:13.920Z,0.5252
2023-04-18T00:08:16.895Z,0.5147
2023-04-18T00:09:19.865Z,0.5163
2023-04-18T00:10:22.765Z,0.5298
2023-04-18T00:11:25.811Z,0.5378
2023-04-18T00:12:28.665Z,0.5250
2023-04-18T00:13:31.617Z,0.5313
2023-04-18T00:14:34.614Z,0.5393
2023-04-18T00:15:37.539Z,0.5343
2023-04-18T00:16:40.538Z,0.5338
2023-04-18T00:17:43.491Z,0.5347
2023-04-18T00:18:46.392Z,0.5543
2023-04-18T00:19:49.320Z,0.5505
2023-04-18T00:20:52.257Z,0.5195
2023-04-18T00:21:55.232Z,0.5353
2023-04-18T00:22:58.148Z,0.5458
2023-04-18T00:24:01.120Z,0.5525
2023-04-18T00:25:04.065Z,0.5477
2023-04-18T00:26:07.061Z,0.5394
2023-04-18T00:27:10.089Z,0.5370
2023-04-18T00:28:12.910Z,0.5259
2023-04-18T00:29:15.856Z,0.5405
2023-04-18T00:30:18.827Z,0.5447
2023-04-18T00:31:21.805Z,0.5291
2023-04-18T00:32:24.741Z,0.5209
2023-04-18T00:33:27.645Z,0.5338
2023-04-18T00:34:30.607Z,0.5593
2023-04-18T00:35:33.555Z,0.5675
2023-04-18T00:36:36.505Z,0.5493
2023-04-18T00:37:39.485Z,0.5680
2023-04-18T00:38:42.395Z,0.5704
2023-04-18T00:39:45.346Z,0.5629
2023-04-18T00:40:48.311Z,0.5425
2023-04-18T00:41:51.304Z,0.5486
2023-04-18T00:42:54.215Z,0.5460
2023-04-18T00:43:57.161Z,0.5325
2023-04-18T00:45:00.132Z,0.5363
2023-04-18T00:46:03.075Z,0.5227
2023-04-18T00:47:06.038Z,0.5217
2023-04-18T00:48:09.003Z,0.5176
2023-04-18T00:49:11.958Z,0.5192
2023-04-18T00:50:14.870Z,0.5452
2023-04-18T00:51:17.812Z,0.5367
2023-04-18T00:52:20.742Z,0.5535
2023-04-18T00:53:23.720Z,0.5504
2023-04-18T00:54:26.688Z,0.5486
2023-04-18T00:55:29.582Z,0.5460
2023-04-18T00:56:32.585Z,0.5566
2023-04-18T00:57:35.489Z,0.5677
2023-04-18T00:58:38.433Z,0.5484
2023-04-18T00:59:41.458Z,0.5186
2023-04-18T01:00:44.317Z,0.5139
2023-04-18T01:01:47.331Z,0.5352
2023-04-18T01:02:50.346Z,0.5401
2023-04-18T01:03:53.291Z,0.5397
2023-04-18T01:04:56.163Z,0.5635
2023-04-18T01:05:59.091Z,0.5311
2023-04-18T01:07:02.034Z,0.5282
2023-04-18T01:08:04.986Z,0.5503
2023-04-18T01:09:07.914Z,0.5323
2023-04-18T01:10:10.860Z,0.5356
2023-04-18T01:11:13.807Z,0.5492
2023-04-18T01:12:16.764Z,0.5195
2023-04-18T01:13:19.705Z,0.5171
2023-04-18T01:14:22.674Z,0.5267
2023-04-18T01:15:25.606Z,0.5246
2023-04-18T01:16:28.627Z,0.5214
2023-04-18T01:17:31.570Z,0.5248
2023-04-18T01:18:34.448Z,0.5159
2023-04-18T01:19:37.420Z,0.5240
2023-04-18T01:20:40.388Z,0.5328
2023-04-18T01:21:43.294Z,0.5290
2023-04-18T01:22:46.255Z,0.5339
2023-04-18T01:23:49.199Z,0.5442
2023-04-18T01:24:52.141Z,0.5503
2023-04-18T01:25:55.090Z,0.5366
2023-04-18T01:26:58.049Z,0.5063
2023-04-18T01:28:00.979Z,0.5124
2023-04-18T01:29:03.979Z,0.5101
2023-04-18T01:30:06.872Z,0.4971
2023-04-18T01:31:09.848Z,0.5092
2023-04-18T01:32:12.850Z,0.5115
2023-04-18T01:33:15.871Z,0.5255
2023-04-18T01:34:18.775Z,0.5389
2023-04-18T01:35:21.720Z,0.5297
2023-04-18T01:36:24.662Z,0.5145
2023-04-18T01:37:27.612Z,0.5195
2023-04-18T01:38:30.536Z,0.5375
2023-04-18T01:39:33.653Z,0.5532
2023-04-18T01:40:36.439Z,0.5428
2023-04-18T01:41:39.387Z,0.5275
2023-04-18T01:42:42.343Z,0.5086
2023-04-18T01:43:45.311Z,0.5079
2023-04-18T01:44:48.232Z,0.5269
2023-04-18T01:45:51.223Z,0.5390
2023-04-18T01:46:54.163Z,0.5563
2023-04-18T01:47:57.184Z,0.5404
2023-04-18T01:49:00.051Z,0.5314
2023-04-18T01:50:02.962Z,0.5404
2023-04-18T01:51:05.909Z,0.5399
2023-04-18T01:52:08.900Z,0.5223
2023-04-18T01:53:11.828Z,0.5222
2023-04-18T01:54:14.856Z,0.5217
2023-04-18T01:55:17.695Z,0.5037
2023-04-18T01:56:20.661Z,0.5144
2023-04-18T01:57:23.605Z,0.5186
2023-04-18T01:58:26.557Z,0.5325
2023-04-18T01:59:29.497Z,0.5383
2023-04-18T02:00:32.459Z,0.5311
2023-04-18T02:01:35.373Z,0.5384
2023-04-18T02:02:38.440Z,0.5588
2023-04-18T02:03:41.505Z,0.5557
2023-04-18T02:04:44.281Z,0.5599
2023-04-18T02:05:47.166Z,0.5611
2023-04-18T02:06:50.109Z,0.5501
2023-04-18T02:07:53.072Z,0.5468
2023-04-18T02:08:56.009Z,0.5399
2023-04-18T02:09:58.944Z,0.5555
2023-04-18T02:11:01.924Z,0.5498
2023-04-18T02:12:04.852Z,0.5505
2023-04-18T02:13:07.835Z,0.5382
2023-04-18T02:14:10.771Z,0.5475
2023-04-18T02:15:13.697Z,0.5346
2023-04-18T02:16:16.681Z,0.5092
2023-04-18T02:17:19.577Z,0.5269
2023-04-18T02:18:22.540Z,0.5265
2023-04-18T02:19:25.481Z,0.5269
2023-04-18T02:20:28.434Z,0.5408
2023-04-18T02:21:31.492Z,0.5498
2023-04-18T02:22:34.308Z,0.5317
2023-04-18T02:23:37.330Z,0.5316
2023-04-18T02:24:40.210Z,0.5393
2023-04-18T02:25:43.174Z,0.5473
2023-04-18T02:26:46.106Z,0.5332
2023-04-18T02:27:49.082Z,0.5488
2023-04-18T02:28:52.012Z,0.5703
2023-04-18T02:29:54.955Z,0.5356
2023-04-18T02:30:57.894Z,0.5271
2023-04-18T02:32:00.921Z,0.5178
2023-04-18T02:33:03.841Z,0.5285
2023-04-18T02:34:06.794Z,0.5406
2023-04-18T02:35:09.765Z,0.5192
2023-04-18T02:36:12.654Z,0.5128
2023-04-18T02:37:15.571Z,0.5266
2023-04-18T02:38:18.549Z,0.5286
2023-04-18T02:39:21.483Z,0.5238
2023-04-18T02:40:24.464Z,0.5236
2023-04-18T02:41:27.370Z,0.5311
2023-04-18T02:42:30.318Z,0.5244
2023-04-18T02:43:33.276Z,0.5353
2023-04-18T02:44:36.278Z,0.5458
2023-04-18T02:45:39.182Z,0.5357
2023-04-18T02:46:42.109Z,0.5441
2023-04-18T02:47:54.440Z,0.5377
2023-04-18T02:48:48.043Z,0.5550
2023-04-18T02:49:51.226Z,0.5498
2023-04-18T02:50:53.953Z,0.5317
2023-04-18T02:51:56.869Z,0.5006
2023-04-18T02:52:59.896Z,0.5241
2023-04-18T02:54:02.772Z,0.5203
2023-04-18T02:55:05.752Z,0.5249
2023-04-18T02:56:08.675Z,0.5374
2023-04-18T02:57:11.655Z,0.5300
2023-04-18T02:58:14.608Z,0.5143
2023-04-18T02:59:17.570Z,0.5350
2023-04-18T03:00:20.540Z,0.5632
2023-04-18T03:01:23.523Z,0.5475
2023-04-18T03:02:26.602Z,0.5460
2023-04-18T03:03:29.423Z,0.5154
2023-04-18T03:04:32.412Z,0.5268
2023-04-18T03:05:35.326Z,0.5404
2023-04-18T03:06:38.291Z,0.5513
2023-04-18T03:07:41.237Z,0.5525
2023-04-18T03:08:44.278Z,0.5426
2023-04-18T03:09:47.142Z,0.5475
2023-04-18T03:10:50.087Z,0.5480
2023-04-18T03:11:53.052Z,0.5632
2023-04-18T03:12:55.992Z,0.5513
2023-04-18T03:13:58.940Z,0.5424
2023-04-18T03:15:01.902Z,0.5169
2023-04-18T03:16:04.935Z,0.5199
2023-04-18T03:17:07.802Z,0.5439
2023-04-18T03:18:10.755Z,0.5228
2023-04-18T03:19:13.751Z,0.5300
2023-04-18T03:20:16.725Z,0.5447
2023-04-18T03:21:19.634Z,0.5444
2023-04-18T03:22:22.577Z,0.5430
2023-04-18T03:23:25.550Z,0.5203
2023-04-18T03:24:28.486Z,0.5196
2023-04-18T03:25:31.506Z,0.5016
2023-04-18T03:26:34.403Z,0.5181
2023-04-18T03:27:37.546Z,0.5236
2023-04-18T03:28:40.416Z,0.5242
2023-04-18T03:29:43.291Z,0.5325
2023-04-18T03:30:46.280Z,0.5415
2023-04-18T03:31:49.251Z,0.5485
2023-04-18T03:32:52.171Z,0.5261
2023-04-18T03:33:55.141Z,0.5470
2023-04-18T03:34:58.184Z,0.5418
2023-04-18T03:36:01.097Z,0.5420
2023-04-18T03:37:03.997Z,0.5599
2023-04-18T03:38:06.940Z,0.5560
2023-04-18T03:39:09.891Z,0.5347
2023-04-18T03:40:12.860Z,0.5534
2023-04-18T03:41:15.794Z,0.5708
2023-04-18T03:42:18.810Z,0.5469
2023-04-18T03:43:21.682Z,0.5340
2023-04-18T03:44:24.688Z,0.5584
2023-04-18T03:45:27.593Z,0.5521
2023-04-18T03:46:30.670Z,0.5447
2023-04-18T03:47:33.561Z,0.5285
2023-04-18T03:48:36.450Z,0.5450
2023-04-18T03:49:39.400Z,0.5323
2023-04-18T03:50:42.355Z,0.5357
2023-04-18T03:51:45.285Z,0.5389
2023-04-18T03:52:48.350Z,0.5279
2023-04-18T03:53:51.228Z,0.5515
2023-04-18T03:54:54.146Z,0.5505
2023-04-18T03:55:57.121Z,0.5442
2023-04-18T03:57:00.048Z,0.5228
2023-04-18T03:58:02.992Z,0.5169
2023-04-18T03:59:05.953Z,0.5318
2023-04-18T04:00:08.898Z,0.5522
2023-04-18T04:01:11.881Z,0.5445
2023-04-18T04:02:14.887Z,0.5282
2023-04-18T04:03:17.959Z,0.5303
2023-04-18T04:04:20.809Z,0.5187
2023-04-18T04:05:23.702Z,0.5345
2023-04-18T04:06:26.618Z,0.5417
2023-04-18T04:07:29.566Z,0.5356
2023-04-18T04:08:32.520Z,0.5448
2023-04-18T04:09:35.478Z,0.5344
2023-04-18T04:10:38.514Z,0.5482
2023-04-18T04:11:41.535Z,0.5344
2023-04-18T04:12:44.327Z,0.5273
2023-04-18T04:13:47.318Z,0.5306
2023-04-18T04:14:50.219Z,0.5348
2023-04-18T04:15:53.374Z,0.5333
2023-04-18T04:16:56.168Z,0.5311
2023-04-18T04:17:59.114Z,0.5275
2023-04-18T04:19:02.041Z,0.5267
2023-04-18T04:20:05.011Z,0.5254
2023-04-18T04:21:07.948Z,0.5307
2023-04-18T04:22:10.919Z,0.5264
2023-04-18T04:23:13.848Z,0.5113
2023-04-18T04:24:16.912Z,0.4950
2023-04-18T04:25:19.747Z,0.5405
2023-04-18T04:26:22.735Z,0.5515
2023-04-18T04:27:25.642Z,0.5398
2023-04-18T04:28:28.604Z,0.5413
2023-04-18T04:29:31.589Z,0.5233
2023-04-18T04:30:34.499Z,0.5283
2023-04-18T04:31:37.485Z,0.5379
2023-04-18T04:32:40.505Z,0.5217
2023-04-18T04:33:43.351Z,0.5052
2023-04-18T04:34:46.331Z,0.5203
2023-04-18T04:35:49.252Z,0.5279
2023-04-18T04:36:52.231Z,0.5373
2023-04-18T04:37:55.161Z,0.5388
2023-04-18T04:38:58.107Z,0.5456
2023-04-18T04:40:01.061Z,0.5485
2023-04-18T04:41:04.038Z,0.5651
2023-04-18T04:42:06.949Z,0.5419
2023-04-18T04:43:10.033Z,0.5385
2023-04-18T04:44:13.143Z,0.5478
2023-04-18T04:45:15.884Z,0.5429
2023-04-18T04:46:18.820Z,0.5230
2023-04-18T04:47:21.718Z,0.5454
2023-04-18T04:48:24.677Z,0.5496
2023-04-18T04:49:27.654Z,0.5455
2023-04-18T04:50:30.601Z,0.5535
2023-04-18T04:51:33.521Z,0.5387
2023-04-18T04:52:36.467Z,0.5404
2023-04-18T04:53:39.421Z,0.5558
2023-04-18T04:54:42.373Z,0.5565
2023-04-18T04:55:45.309Z,0.5639
2023-04-18T04:56:48.257Z,0.5587
2023-04-18T04:57:51.219Z,0.5473
2023-04-18T04:58:54.222Z,0.5325
2023-04-18T04:59:57.113Z,0.5416
2023-04-18T05:01:00.058Z,0.5453
2023-04-18T05:02:03.175Z,0.5471
2023-04-18T05:03:06.028Z,0.5271
2023-04-18T05:04:08.985Z,0.5500
2023-04-18T05:05:11.939Z,0.5353
2023-04-18T05:06:14.873Z,0.5461
2023-04-18T05:07:17.779Z,0.5425
2023-04-18T05:08:20.721Z,0.5471
2023-04-18T05:09:23.678Z,0.5404
2023-04-18T05:10:26.616Z,0.5290
2023-04-18T05:11:29.565Z,0.5514
2023-04-18T05:12:32.525Z,0.5422
2023-04-18T05:13:35.486Z,0.5609
2023-04-18T05:14:38.452Z,0.5366
2023-04-18T05:15:41.371Z,0.5511
2023-04-18T05:16:44.368Z,0.5570
2023-04-18T05:17:47.312Z,0.5507
2023-04-18T05:18:50.221Z,0.5537
2023-04-18T05:19:53.196Z,0.5675
2023-04-18T05:20:56.133Z,0.5380
2023-04-18T05:21:59.079Z,0.5238
2023-04-18T05:23:02.042Z,0.5453
2023-04-18T05:24:04.957Z,0.5646
2023-04-18T05:25:07.917Z,0.5525
2023-04-18T05:26:10.877Z,0.5334
2023-04-18T05:27:13.872Z,0.5395
2023-04-18T05:28:16.779Z,0.5468
2023-04-18T05:29:19.712Z,0.5770
2023-04-18T05:30:22.729Z,0.5695
2023-04-18T05:31:25.634Z,0.5590
2023-04-18T05:32:28.583Z,0.5458
2023-04-18T05:33:31.524Z,0.5686
2023-04-18T05:34:35.319Z,0.6006
2023-04-18T05:35:37.418Z,0.5747
2023-04-18T05:36:40.344Z,0.5582
2023-04-18T05:37:43.320Z,0.5520
2023-04-18T05:38:46.246Z,0.5562
2023-04-18T05:39:49.298Z,0.5692
2023-04-18T05:40:52.227Z,0.5668
2023-04-18T05:41:55.175Z,0.5643
2023-04-18T05:42:58.128Z,0.5571
2023-04-18T05:44:05.319Z,0.5564
2023-04-18T05:45:04.049Z,0.5681
2023-04-18T05:46:07.026Z,0.5592
2023-04-18T05:47:09.950Z,0.5563
2023-04-18T05:48:12.931Z,0.5396
2023-04-18T05:49:15.859Z,0.5521
2023-04-18T05:50:18.788Z,0.5673
2023-04-18T05:51:21.738Z,0.5701
2023-04-18T05:52:24.675Z,0.5457
2023-04-18T05:53:27.654Z,0.5481
2023-04-18T05:54:30.581Z,0.5604
2023-04-18T05:55:33.514Z,0.5630
2023-04-18T05:56:36.477Z,0.5736
2023-04-18T05:57:39.417Z,0.5822
2023-04-18T05:58:42.392Z,0.5919
2023-04-18T05:59:45.340Z,0.5988
2023-04-18T06:00:48.294Z,0.5965
2023-04-18T06:01:51.286Z,0.5961
2023-04-18T06:02:54.320Z,0.5777
2023-04-18T06:03:57.456Z,0.5718
2023-04-18T06:05:00.267Z,0.5704
2023-04-18T06:06:03.152Z,0.5311
2023-04-18T06:07:05.969Z,0.5510
2023-04-18T06:08:08.908Z,0.5589
2023-04-18T06:09:11.868Z,0.5705
2023-04-18T06:10:14.825Z,0.5597
2023-04-18T06:11:17.766Z,0.5747
2023-04-18T06:12:20.693Z,0.5648
2023-04-18T06:13:23.650Z,0.5598
2023-04-18T06:14:26.592Z,0.5480
2023-04-18T06:15:29.552Z,0.5448
2023-04-18T06:16:32.522Z,0.5795
2023-04-18T06:17:35.465Z,0.5710
2023-04-18T06:18:38.411Z,0.5598
2023-04-18T06:19:41.341Z,0.5631
2023-04-18T06:20:44.337Z,0.5854
2023-04-18T06:21:47.246Z,0.5810
2023-04-18T06:22:50.219Z,0.5805
2023-04-18T06:23:53.144Z,0.5718
2023-04-18T06:24:56.092Z,0.5631
2023-04-18T06:25:59.055Z,0.5490
2023-04-18T06:27:02.012Z,0.5510
2023-04-18T06:28:04.932Z,0.5245
2023-04-18T06:29:07.882Z,0.4983
2023-04-18T06:30:10.824Z,0.5211
2023-04-18T06:31:13.849Z,0.5489
2023-04-18T06:32:16.713Z,0.5604
2023-04-18T06:33:19.687Z,0.5650
2023-04-18T06:34:22.617Z,0.5563
2023-04-18T06:35:26.723Z,0.5578
2023-04-18T06:36:28.499Z,0.5617
2023-04-18T06:37:31.436Z,0.5685
2023-04-18T06:38:34.396Z,0.5565
2023-04-18T06:39:37.319Z,0.5461
2023-04-18T06:40:40.278Z,0.5606
2023-04-18T06:41:43.218Z,0.5697
2023-04-18T06:42:46.181Z,0.5569
2023-04-18T06:44:02.019Z,0.5787
2023-04-18T06:44:52.075Z,0.5832
2023-04-18T06:45:55.024Z,0.5834
2023-04-18T06:46:57.980Z,0.5657
2023-04-18T06:48:00.936Z,0.5498
2023-04-18T06:49:03.928Z,0.5567
2023-04-18T06:50:06.833Z,0.5647
2023-04-18T06:51:09.785Z,0.5737
2023-04-18T06:52:12.746Z,0.5705
2023-04-18T06:53:15.676Z,0.5634
2023-04-18T06:54:18.635Z,0.5729
2023-04-18T06:55:21.599Z,0.5513
2023-04-18T06:56:24.517Z,0.5325
2023-04-18T06:57:27.482Z,0.5628
2023-04-18T06:58:30.414Z,0.5687
2023-04-18T06:59:33.369Z,0.5546
2023-04-18T07:00:36.330Z,0.5590
2023-04-18T07:01:39.346Z,0.5570
2023-04-18T07:02:42.399Z,0.5719
2023-04-18T07:03:45.217Z,0.5729
2023-04-18T07:04:48.384Z,0.5671
2023-04-18T07:05:51.083Z,0.5751
2023-04-18T07:06:53.991Z,0.5654
2023-04-18T07:07:56.950Z,0.5703
2023-04-18T07:08:59.943Z,0.5669
2023-04-18T07:10:02.864Z,0.5435
2023-04-18T07:11:05.816Z,0.5852
2023-04-18T07:12:08.764Z,0.5826
2023-04-18T07:13:11.738Z,0.5382
2023-04-18T07:14:14.958Z,0.5426
2023-04-18T07:15:17.584Z,0.5328
2023-04-18T07:16:20.617Z,0.5506
2023-04-18T07:17:23.494Z,0.5497
2023-04-18T07:18:36.773Z,0.5468
2023-04-18T07:19:29.375Z,0.5612
2023-04-18T07:20:32.358Z,0.5387
2023-04-18T07:21:35.379Z,0.5292
2023-04-18T07:22:38.219Z,0.5453
2023-04-18T07:23:41.147Z,0.5450
2023-04-18T07:24:44.136Z,0.5500
2023-04-18T07:25:47.074Z,0.5393
2023-04-18T07:26:50.003Z,0.5196
2023-04-18T07:27:52.948Z,0.5525
2023-04-18T07:28:55.888Z,0.5589
2023-04-18T07:29:58.858Z,0.5539
2023-04-18T07:31:01.881Z,0.5678
2023-04-18T07:32:06.195Z,0.5434
2023-04-18T07:33:07.696Z,0.5668
2023-04-18T07:34:10.657Z,0.5526
2023-04-18T07:35:13.601Z,0.5707
2023-04-18T07:36:16.536Z,0.5547
2023-04-18T07:37:19.493Z,0.5330
2023-04-18T07:38:22.436Z,0.5348
2023-04-18T07:39:25.386Z,0.5366
2023-04-18T07:40:28.344Z,0.5499
2023-04-18T07:41:31.295Z,0.5653
2023-04-18T07:42:34.230Z,0.5596
2023-04-18T07:43:37.190Z,0.5273
2023-04-18T07:44:40.113Z,0.5314
2023-04-18T07:45:43.103Z,0.5246
2023-04-18T07:46:46.092Z,0.5326
2023-04-18T07:47:48.976Z,0.5300
2023-04-18T07:48:51.900Z,0.5327
2023-04-18T07:49:54.857Z,0.5332
2023-04-18T07:50:57.825Z,0.5193
2023-04-18T07:52:00.728Z,0.5291
2023-04-18T07:53:03.680Z,0.5597
2023-04-18T07:54:06.656Z,0.5600
2023-04-18T07:55:09.696Z,0.5592
2023-04-18T07:56:12.563Z,0.5522
2023-04-18T07:57:15.482Z,0.5536
2023-04-18T07:58:18.422Z,0.5417
2023-04-18T07:59:21.383Z,0.5184
2023-04-18T08:00:24.386Z,0.5313
2023-04-18T08:01:27.307Z,0.5376
2023-04-18T08:02:30.330Z,0.5358
2023-04-18T08:03:33.315Z,0.5461
2023-04-18T08:04:36.222Z,0.5407
2023-04-18T08:05:39.100Z,0.5394
2023-04-18T08:06:42.013Z,0.5352
2023-04-18T08:07:44.941Z,0.5351
2023-04-18T08:08:47.889Z,0.5366
2023-04-18T08:09:50.845Z,0.5349
2023-04-18T08:10:53.861Z,0.5364
2023-04-18T08:11:56.757Z,0.5258
2023-04-18T08:12:59.687Z,0.5335
2023-04-18T08:14:02.645Z,0.5271
2023-04-18T08:15:05.599Z,0.5424
2023-04-18T08:16:08.586Z,0.5489
2023-04-18T08:17:11.489Z,0.5404
2023-04-18T08:18:14.438Z,0.5437
2023-04-18T08:19:17.398Z,0.5456
2023-04-18T08:20:20.401Z,0.5531
2023-04-18T08:21:23.300Z,0.5485
2023-04-18T08:22:26.241Z,0.5361
2023-04-18T08:23:29.266Z,0.5430
2023-04-18T08:24:32.144Z,0.5313
2023-04-18T08:25:35.080Z,0.5289
2023-04-18T08:26:38.107Z,0.5504
2023-04-18T08:27:40.991Z,0.5315
2023-04-18T08:28:45.951Z,0.5272
2023-04-18T08:29:46.994Z,0.5409
2023-04-18T08:30:49.844Z,0.5406
2023-04-18T08:31:52.901Z,0.5479
2023-04-18T08:32:55.738Z,0.5507
2023-04-18T08:33:58.679Z,0.5498
2023-04-18T08:35:01.657Z,0.5423
2023-04-18T08:36:04.592Z,0.5266
2023-04-18T08:37:07.521Z,0.5494
2023-04-18T08:38:10.479Z,0.5568
2023-04-18T08:39:13.897Z,0.5529
2023-04-18T08:40:16.371Z,0.5590
2023-04-18T08:41:19.328Z,0.5668
2023-04-18T08:42:22.247Z,0.5414
2023-04-18T08:43:25.238Z,0.5279
2023-04-18T08:44:28.198Z,0.5333
2023-04-18T08:45:31.177Z,0.5769
2023-04-18T08:46:34.156Z,0.5920
2023-04-18T08:47:37.124Z,0.5789
2023-04-18T08:48:39.941Z,0.5456
2023-04-18T08:49:43.031Z,0.5192
2023-04-18T08:50:45.852Z,0.5273
2023-04-18T08:51:48.807Z,0.5274
2023-04-18T08:52:51.733Z,0.5270
2023-04-18T08:53:54.692Z,0.5374
2023-04-18T08:54:57.720Z,0.5170
2023-04-18T08:56:00.609Z,0.5134
2023-04-18T08:57:03.564Z,0.5357
2023-04-18T08:58:06.494Z,0.5599
2023-04-18T08:59:09.439Z,0.5628
2023-04-18T09:00:12.387Z,0.5439
2023-04-18T09:01:15.380Z,0.5400
2023-04-18T09:02:18.315Z,0.5418
2023-04-18T09:03:21.347Z,0.5530
2023-04-18T09:04:24.205Z,0.5588
2023-04-18T09:05:27.112Z,0.5484
2023-04-18T09:06:30.084Z,0.5449
2023-04-18T09:07:33.128Z,0.5438
2023-04-18T09:08:36.001Z,0.5516
2023-04-18T09:09:38.920Z,0.5634
2023-04-18T09:10:42.798Z,0.5800
2023-04-18T09:11:44.803Z,0.5701
2023-04-18T09:12:47.765Z,0.5581
2023-04-18T09:13:50.725Z,0.5322
2023-04-18T09:14:53.666Z,0.5328
2023-04-18T09:15:56.637Z,0.5447
2023-04-18T09:16:59.626Z,0.5503
2023-04-18T09:18:02.771Z,0.5455
2023-04-18T09:19:06.890Z,0.5360
2023-04-18T09:20:08.418Z,0.5753
2023-04-18T09:21:11.355Z,0.5589
2023-04-18T09:22:14.328Z,0.5461
2023-04-18T09:23:17.272Z,0.5404
2023-04-18T09:24:20.243Z,0.5384
2023-04-18T09:25:23.199Z,0.5279
2023-04-18T09:26:26.211Z,0.5138
2023-04-18T09:27:29.058Z,0.5174
2023-04-18T09:28:31.990Z,0.5591
2023-04-18T09:29:34.972Z,0.5616
2023-04-18T09:30:37.977Z,0.5563
2023-04-18T09:31:40.845Z,0.5462
2023-04-18T09:32:43.853Z,0.5290
2023-04-18T09:33:46.732Z,0.5348
2023-04-18T09:34:49.670Z,0.5596
2023-04-18T09:35:52.623Z,0.5723
2023-04-18T09:36:55.656Z,0.5435
2023-04-18T09:37:58.526Z,0.5499
2023-04-18T09:39:01.486Z,0.5485
2023-04-18T09:40:04.411Z,0.5336
2023-04-18T09:41:07.383Z,0.5445
2023-04-18T09:42:10.303Z,0.5509
2023-04-18T09:43:13.272Z,0.5263
2023-04-18T09:44:16.210Z,0.5083
2023-04-18T09:45:19.149Z,0.4981
2023-04-18T09:46:22.110Z,0.5057
2023-04-18T09:47:25.072Z,0.5189
2023-04-18T09:48:28.119Z,0.5154
2023-04-18T09:49:31.033Z,0.5332
2023-04-18T09:50:33.954Z,0.5342
2023-04-18T09:51:36.882Z,0.5403
2023-04-18T09:52:39.858Z,0.5342
2023-04-18T09:53:42.807Z,0.5438
2023-04-18T09:54:48.122Z,0.5401
2023-04-18T09:55:48.666Z,0.5241
2023-04-18T09:56:51.638Z,0.5181
2023-04-18T09:57:54.566Z,0.5347
2023-04-18T09:58:57.520Z,0.5330
2023-04-18T10:00:00.508Z,0.5414
2023-04-18T10:01:03.486Z,0.5298
2023-04-18T10:02:06.564Z,0.5363
2023-04-18T10:03:09.419Z,0.5232
2023-04-18T10:04:12.525Z,0.5155
2023-04-18T10:05:15.258Z,0.4977
2023-04-18T10:06:18.150Z,0.5219
2023-04-18T10:07:21.106Z,0.5117
2023-04-18T10:08:24.081Z,0.5248
2023-04-18T10:09:27.000Z,0.5431
2023-04-18T10:10:29.957Z,0.5387
2023-04-18T10:11:32.906Z,0.5310
2023-04-18T10:12:35.839Z,0.5265
2023-04-18T10:13:38.951Z,0.5186
2023-04-18T10:14:41.733Z,0.5155
2023-04-18T10:15:45.326Z,0.5102
2023-04-18T10:16:49.268Z,0.5187
2023-04-18T10:18:02.814Z,0.5249
2023-04-18T10:18:53.547Z,0.5301
2023-04-18T10:19:56.479Z,0.5394
2023-04-18T10:20:59.427Z,0.5494
2023-04-18T10:22:02.410Z,0.5302
2023-04-18T10:23:05.341Z,0.5302
2023-04-18T10:24:08.299Z,0.5175
2023-04-18T10:25:11.214Z,0.5160
2023-04-18T10:26:14.187Z,0.5348
2023-04-18T10:27:17.108Z,0.5322
2023-04-18T10:28:20.090Z,0.5264
2023-04-18T10:29:23.002Z,0.5262
2023-04-18T10:30:25.969Z,0.5331
2023-04-18T10:31:28.979Z,0.5226
2023-04-18T10:32:31.881Z,0.5225
2023-04-18T10:33:34.862Z,0.5269
2023-04-18T10:34:37.805Z,0.5084
2023-04-18T10:35:41.398Z,0.5146
2023-04-18T10:36:43.653Z,0.5237
2023-04-18T10:37:46.614Z,0.5154
2023-04-18T10:38:49.600Z,0.5244
2023-04-18T10:39:52.528Z,0.5090
2023-04-18T10:40:55.471Z,0.4934
2023-04-18T10:41:58.380Z,0.5128
2023-04-18T10:43:01.345Z,0.5251
2023-04-18T10:44:04.701Z,0.5099
2023-04-18T10:45:07.405Z,0.5130
2023-04-18T10:46:17.323Z,0.5269
2023-04-18T10:47:13.133Z,0.5324
2023-04-18T10:48:16.097Z,0.5601
2023-04-18T10:49:19.034Z,0.5385
2023-04-18T10:50:21.959Z,0.5224
2023-04-18T10:51:24.930Z,0.5194
2023-04-18T10:52:27.870Z,0.5094
2023-04-18T10:53:30.890Z,0.5241
2023-04-18T10:54:33.763Z,0.5370
2023-04-18T10:55:36.711Z,0.5253
2023-04-18T10:56:39.661Z,0.5243
2023-04-18T10:57:42.614Z,0.5361
2023-04-18T10:58:45.596Z,0.5306
2023-04-18T10:59:48.513Z,0.5194
2023-04-18T11:00:51.547Z,0.5254
2023-04-18T11:01:54.438Z,0.5252
2023-04-18T11:02:57.452Z,0.5200
2023-04-18T11:04:00.456Z,0.5216
2023-04-18T11:05:03.244Z,0.5162
2023-04-18T11:06:06.202Z,0.5388
2023-04-18T11:07:09.181Z,0.5405
2023-04-18T11:08:12.110Z,0.5313
2023-04-18T11:09:15.086Z,0.5101
2023-04-18T11:10:18.036Z,0.5260
2023-04-18T11:11:20.953Z,0.5290
2023-04-18T11:12:23.952Z,0.5286
2023-04-18T11:13:26.845Z,0.5541
2023-04-18T11:14:29.801Z,0.5583
2023-04-18T11:15:32.741Z,0.5469
2023-04-18T11:16:35.926Z,0.5195
2023-04-18T11:17:38.649Z,0.5132
2023-04-18T11:18:41.595Z,0.5136
2023-04-18T11:19:44.569Z,0.5174
2023-04-18T11:20:47.503Z,0.5304
2023-04-18T11:21:50.437Z,0.5240
2023-04-18T11:22:53.407Z,0.5187
2023-04-18T11:23:56.332Z,0.5219
2023-04-18T11:24:59.283Z,0.5108
2023-04-18T11:26:02.356Z,0.5139
2023-04-18T11:27:05.252Z,0.5418
2023-04-18T11:28:08.192Z,0.5233
2023-04-18T11:29:11.090Z,0.5171
2023-04-18T11:30:14.031Z,0.5204
2023-04-18T11:31:17.014Z,0.5221
2023-04-18T11:32:19.974Z,0.5146
2023-04-18T11:33:22.968Z,0.5411
2023-04-18T11:34:25.815Z,0.5537
2023-04-18T11:35:28.817Z,0.5497
2023-04-18T11:36:31.737Z,0.5334
2023-04-18T11:37:34.689Z,0.5273
2023-04-18T11:38:37.616Z,0.5278
2023-04-18T11:39:40.567Z,0.5191
2023-04-18T11:40:43.516Z,0.5375
2023-04-18T11:41:46.500Z,0.5248
2023-04-18T11:42:49.420Z,0.4886
2023-04-18T11:43:52.406Z,0.5285
2023-04-18T11:44:55.316Z,0.5435
2023-04-18T11:45:58.307Z,0.5391
2023-04-18T11:47:01.219Z,0.5376
2023-04-18T11:48:04.241Z,0.5540
2023-04-18T11:49:07.132Z,0.5177
2023-04-18T11:50:10.202Z,0.5202
2023-04-18T11:51:13.058Z,0.5053
2023-04-18T11:52:15.963Z,0.5250
2023-04-18T11:53:18.909Z,0.5128
2023-04-18T11:54:21.890Z,0.5318
2023-04-18T11:55:24.816Z,0.5093
2023-04-18T11:56:28.102Z,0.5166
2023-04-18T11:57:30.717Z,0.5260
2023-04-18T11:58:33.692Z,0.5208
2023-04-18T11:59:36.638Z,0.5273
2023-04-18T12:00:39.679Z,0.5516
2023-04-18T12:01:42.520Z,0.5297
2023-04-18T12:02:45.575Z,0.5133
2023-04-18T12:03:48.716Z,0.5114
2023-04-18T12:04:51.659Z,0.5142
2023-04-18T12:05:54.476Z,0.5101
2023-04-18T12:06:57.296Z,0.5161
2023-04-18T12:08:00.258Z,0.5261
2023-04-18T12:09:03.217Z,0.5404
2023-04-18T12:10:06.183Z,0.5249
2023-04-18T12:11:09.143Z,0.5204
2023-04-18T12:12:12.082Z,0.5263
2023-04-18T12:13:15.048Z,0.5172
2023-04-18T12:14:18.002Z,0.5030
2023-04-18T12:15:20.968Z,0.5328
2023-04-18T12:16:23.953Z,0.5467
2023-04-18T12:17:26.942Z,0.5333
2023-04-18T12:18:29.868Z,0.5288
2023-04-18T12:19:32.830Z,0.5142
2023-04-18T12:20:35.743Z,0.5184
2023-04-18T12:21:38.708Z,0.5410
2023-04-18T12:22:41.669Z,0.5503
2023-04-18T12:23:44.607Z,0.5341
2023-04-18T12:24:47.581Z,0.5004
2023-04-18T12:25:50.516Z,0.5308
2023-04-18T12:26:53.578Z,0.5307
2023-04-18T12:27:56.514Z,0.5347
2023-04-18T12:28:59.405Z,0.5321
2023-04-18T12:30:02.343Z,0.5189
2023-04-18T12:31:05.328Z,0.5313
2023-04-18T12:32:08.256Z,0.5213
2023-04-18T12:33:11.228Z,0.5194
2023-04-18T12:34:14.348Z,0.5224
2023-04-18T12:35:17.144Z,0.5263
2023-04-18T12:36:20.065Z,0.5202
2023-04-18T12:37:23.027Z,0.5218
2023-04-18T12:38:26.000Z,0.5325
2023-04-18T12:39:28.976Z,0.5174
2023-04-18T12:40:32.081Z,0.5193
2023-04-18T12:41:34.843Z,0.5194
2023-04-18T12:42:37.793Z,0.5407
2023-04-18T12:43:40.769Z,0.5604
2023-04-18T12:44:43.944Z,0.5404
2023-04-18T12:45:46.722Z,0.5556
2023-04-18T12:46:49.745Z,0.5489
2023-04-18T12:47:52.750Z,0.5454
2023-04-18T12:48:55.586Z,0.5331
2023-04-18T12:49:58.499Z,0.5271
2023-04-18T12:51:01.438Z,0.5257
2023-04-18T12:52:04.406Z,0.5311
2023-04-18T12:53:07.455Z,0.5109
2023-04-18T12:54:10.415Z,0.4838
2023-04-18T12:55:13.258Z,0.4921
2023-04-18T12:56:16.235Z,0.4955
2023-04-18T12:57:19.229Z,0.5027
2023-04-18T12:58:22.145Z,0.5121
2023-04-18T12:59:25.089Z,0.5202
2023-04-18T13:00:28.050Z,0.5369
2023-04-18T13:01:31.064Z,0.5310
2023-04-18T13:02:34.055Z,0.5300
2023-04-18T13:03:37.136Z,0.5271
2023-04-18T13:04:40.050Z,0.5368
2023-04-18T13:05:42.870Z,0.5281